METAR Data
IDs: Format: Raw Decoded Include TAF

Data at: 0550 UTC 06 Dec 2021

Region: TOP
KATL 060452Z 11005KT 8SM BKN042 BKN250 15/12 A3013 RMK AO2 SLP199 T01500122 401830122 $

KBOS 060454Z 16009KT 10SM OVC090 06/M02 A3033 RMK AO2 SLP271 T00561017 400830033

KBWI 060523Z 35003KT 10SM SCT021 BKN026 BKN033 08/04 A3011 RMK AO2 T00780044

KCLE 060451Z 20019G28KT 10SM FEW037 SCT090 13/08 A2966 RMK AO2 PK WND 20035/0353 SLP060 T01280078 401330017 $

KCLT 060452Z 17004KT 10SM BKN050 13/09 A3015 RMK AO2 SLP207 T01330094 401830094

KCVG 060537Z 19012KT 9SM OVC014 16/14 A2970 RMK AO2 LTG DSNT W-N RAB0453E12 P0001 T01610139

KDCA 060452Z 00000KT 10SM BKN022 OVC055 09/M01 A3015 RMK AO2 SLP210 T00891006 401170028

KDEN 060453Z 03008KT 9SM OVC032 M06/M13 A3024 RMK AO2 SNE49 SLP226 P0000 T10611133

KDFW 060453Z 18010KT 10SM FEW150 FEW250 20/17 A2982 RMK AO2 SLP091 T02000167

KDTW 060534Z 23009KT 2 1/2SM -RA BR SCT006 BKN010 OVC025 08/07 A2960 RMK AO2 DZE04RAB04 P0001 T00780072 $

KEWR 060451Z 11009G15KT 10SM BKN028 OVC075 11/04 A3019 RMK AO2 SLP224 T01110044 401110017

KFLL 060453Z 13005KT 10SM SCT024 BKN036 BKN050 25/22 A3011 RMK AO2 SLP195 T02500217 402720200

KIAD 060507Z 18005KT 10SM BKN022 BKN028 OVC045 09/00 A3013 RMK AO2 T00890000

KIAH 060453Z 18008G16KT 10SM BKN014 OVC030 24/21 A2992 RMK AO2 SLP130 T02440211

KJFK 060526Z 11010KT 10SM OVC029 11/07 A3018 RMK AO2 T01110067

KLAS 060456Z 00000KT 10SM FEW250 15/M09 A3008 RMK AO2 SLP177 T01501089

KLAX 060453Z 00000KT 7SM CLR 14/13 A3004 RMK AO2 SLP171 T01390128

KLGA 060451Z 06005KT 10SM OVC029 08/01 A3020 RMK AO2 PRESFR SLP227 T00830011 400940056

KMCO 060453Z 00000KT 10SM FEW060 19/16 A3014 RMK AO2 SLP206 T01890161 402670139

KMDW 060453Z 28005KT 10SM FEW011 SCT034 BKN250 04/02 A2967 RMK AO2 SLP054 T00440017

KMEM 060454Z 19018G24KT 10SM BKN047 BKN120 19/15 A2987 RMK AO2 RAB04E50 SLP113 P0000 T01940150 $

KMIA 060453Z 09003KT 10SM SCT032 BKN050 24/21 A3012 RMK AO2 SLP198 T02390211 402830183

KMSP 060532Z 31022G37KT 6SM -SN BKN023 OVC029 M02/M06 A2971 RMK AO2 PK WND 31037/0528 P0000 T10171056 $

KORD 060451Z 28007KT 9SM FEW010 SCT036 SCT170 OVC250 03/01 A2965 RMK AO2 SLP046 T00330011

KPDX 060453Z 00000KT 10SM BKN110 OVC130 06/02 A3038 RMK AO2 SLP288 T00560022

KPHL 060520Z 05005KT 10SM BKN017 OVC025 09/03 A3013 RMK AO2 T00890028

KPHX 060451Z 09006KT 10SM CLR 17/01 A2998 RMK AO2 SLP145 T01670011 $

KPIT 060451Z 19008KT 7SM -RA BKN050 OVC070 11/05 A2984 RMK AO2 RAB15 SLP116 P0002 T01110050 401281033

KSAN 060451Z 00000KT 6SM BR CLR 13/11 A3007 RMK AO2 SLP182 T01280111

KSEA 060453Z 00000KT 10SM FEW040 OVC100 03/M01 A3037 RMK AO2 SLP295 T00331006

KSFO 060456Z 30007KT 10SM FEW004 12/11 A3020 RMK AO2 SLP226 T01170106

KSLC 060454Z 26003KT 10SM FEW200 02/M04 A3023 RMK AO2 SLP235 T00221039

KSTL 060515Z 36011KT 10SM BKN022 OVC070 13/09 A2975 RMK AO2 T01280089 $

KTPA 060453Z 05003KT 10SM CLR 20/15 A3015 RMK AO2 SLP208 T02000150 402670161